createdAt,value
2022-11-04T00:00:22.002Z,18.93
2022-11-04T00:00:47.062Z,18.97
2022-11-04T00:01:09.180Z,18.88
2022-11-04T00:01:32.386Z,18.88
2022-11-04T00:01:54.639Z,18.88
2022-11-04T00:02:16.326Z,18.89
2022-11-04T00:02:38.042Z,18.91
2022-11-04T00:03:00.687Z,18.91
2022-11-04T00:03:22.264Z,18.92
2022-11-04T00:03:43.882Z,18.90
2022-11-04T00:04:05.920Z,18.88
2022-11-04T00:04:29.083Z,18.85
2022-11-04T00:04:51.645Z,18.84
2022-11-04T00:05:13.217Z,18.88
2022-11-04T00:05:34.782Z,18.87
2022-11-04T00:05:56.343Z,18.86
2022-11-04T00:06:19.032Z,18.83
2022-11-04T00:06:40.994Z,18.84
2022-11-04T00:07:22.697Z,18.79
2022-11-04T00:08:02.254Z,18.87
2022-11-04T00:08:23.802Z,18.89
2022-11-04T00:08:49.440Z,18.87
2022-11-04T00:09:13.266Z,18.85
2022-11-04T00:09:35.819Z,18.84
2022-11-04T00:09:57.389Z,18.84
2022-11-04T00:10:40.397Z,18.86
2022-11-04T00:11:21.155Z,18.85
2022-11-04T00:12:01.518Z,18.86
2022-11-04T00:12:26.177Z,18.89
2022-11-04T00:12:47.757Z,18.88
2022-11-04T00:13:09.732Z,18.72
2022-11-04T00:13:31.553Z,18.68
2022-11-04T00:13:54.115Z,18.67
2022-11-04T00:14:16.520Z,18.70
2022-11-04T00:14:39.276Z,18.71
2022-11-04T00:15:20.868Z,18.74
2022-11-04T00:15:57.329Z,18.78
2022-11-04T00:16:37.332Z,18.79
2022-11-04T00:17:18.248Z,18.68
2022-11-04T00:17:39.804Z,18.70
2022-11-04T00:18:01.345Z,18.71
2022-11-04T00:18:23.044Z,18.68
2022-11-04T00:18:44.628Z,18.69
2022-11-04T00:19:06.168Z,18.69
2022-11-04T00:19:28.738Z,18.70
2022-11-04T00:20:10.346Z,18.62
2022-11-04T00:20:50.225Z,18.40
2022-11-04T00:21:30.282Z,18.46
2022-11-04T00:22:11.125Z,18.43
2022-11-04T00:22:51.344Z,18.47
2022-11-04T00:23:31.486Z,18.49
2022-11-04T00:24:11.724Z,18.40
2022-11-04T00:24:52.119Z,18.42
2022-11-04T00:25:32.435Z,18.40
2022-11-04T00:26:14.004Z,18.43
2022-11-04T00:26:54.241Z,18.47
2022-11-04T00:27:36.838Z,18.45
2022-11-04T00:28:22.050Z,18.41
2022-11-04T00:28:44.768Z,18.27
2022-11-04T00:29:06.362Z,18.24
2022-11-04T00:29:27.907Z,18.27
2022-11-04T00:29:49.458Z,18.28
2022-11-04T00:30:12.243Z,18.29
2022-11-04T00:30:33.852Z,18.33
2022-11-04T00:30:56.936Z,18.33
2022-11-04T00:31:36.174Z,18.32
2022-11-04T00:32:24.585Z,18.39
2022-11-04T00:33:04.671Z,18.44
2022-11-04T00:33:26.964Z,18.49
2022-11-04T00:33:49.691Z,18.52
2022-11-04T00:34:12.246Z,18.38
2022-11-04T00:34:33.787Z,18.46
2022-11-04T00:34:55.974Z,18.49
2022-11-04T00:35:17.648Z,18.55
2022-11-04T00:35:39.216Z,18.58
2022-11-04T00:36:01.807Z,18.52
2022-11-04T00:36:25.341Z,18.53
2022-11-04T00:36:46.911Z,18.57
2022-11-04T00:37:08.449Z,18.54
2022-11-04T00:37:30.077Z,18.48
2022-11-04T00:37:52.653Z,18.51
2022-11-04T00:38:14.235Z,18.52
2022-11-04T00:38:35.953Z,18.52
2022-11-04T00:38:58.043Z,18.48
2022-11-04T00:39:20.804Z,18.49
2022-11-04T00:39:42.357Z,18.45
2022-11-04T00:40:04.802Z,18.38
2022-11-04T00:40:27.367Z,18.41
2022-11-04T00:40:48.923Z,18.35
2022-11-04T00:41:25.811Z,18.36
2022-11-04T00:41:48.322Z,18.38
2022-11-04T00:42:09.959Z,18.40
2022-11-04T00:42:31.673Z,18.39
2022-11-04T00:42:53.265Z,18.43
2022-11-04T00:43:14.850Z,18.36
2022-11-04T00:43:37.394Z,18.41
2022-11-04T00:44:01.513Z,18.43
2022-11-04T00:44:23.050Z,18.41
2022-11-04T00:44:44.697Z,18.45
2022-11-04T00:45:07.718Z,18.35
2022-11-04T00:45:30.228Z,18.43
2022-11-04T00:45:51.791Z,18.46
2022-11-04T00:46:13.366Z,18.44
2022-11-04T00:46:35.032Z,18.50
2022-11-04T00:46:56.653Z,18.52
2022-11-04T00:47:19.190Z,18.55
2022-11-04T00:47:40.738Z,18.55
2022-11-04T00:48:02.327Z,18.55
2022-11-04T00:48:23.883Z,18.51
2022-11-04T00:48:45.493Z,18.51
2022-11-04T00:49:08.239Z,18.49
2022-11-04T00:49:29.848Z,18.48
2022-11-04T00:49:51.577Z,18.53
2022-11-04T00:50:13.218Z,18.56
2022-11-04T00:50:35.827Z,18.55
2022-11-04T00:50:57.561Z,18.57
2022-11-04T00:51:19.615Z,18.60
2022-11-04T00:51:41.427Z,18.63
2022-11-04T00:52:04.047Z,18.49
2022-11-04T00:52:25.655Z,18.44
2022-11-04T00:52:47.239Z,18.46
2022-11-04T00:53:09.091Z,18.46
2022-11-04T00:53:31.910Z,18.36
2022-11-04T00:53:53.941Z,18.39
2022-11-04T00:54:15.651Z,18.38
2022-11-04T00:54:37.248Z,18.42
2022-11-04T00:54:58.848Z,18.41
2022-11-04T00:55:21.417Z,18.42
2022-11-04T00:55:43.343Z,18.32
2022-11-04T00:56:05.514Z,18.30
2022-11-04T00:56:28.517Z,18.31
2022-11-04T00:56:50.162Z,18.33
2022-11-04T00:57:13.409Z,18.37
2022-11-04T00:57:35.520Z,18.33
2022-11-04T00:57:58.511Z,18.35
2022-11-04T00:58:21.051Z,18.28
2022-11-04T00:58:42.749Z,18.36
2022-11-04T00:59:04.618Z,18.35
2022-11-04T00:59:26.291Z,18.37
2022-11-04T00:59:48.779Z,18.32
2022-11-04T01:00:11.721Z,18.39
2022-11-04T01:00:33.297Z,18.43
2022-11-04T01:00:54.941Z,18.40
2022-11-04T01:01:18.648Z,18.37
2022-11-04T01:01:40.637Z,18.42
2022-11-04T01:02:02.601Z,18.42
2022-11-04T01:02:24.418Z,18.31
2022-11-04T01:02:47.209Z,18.45
2022-11-04T01:03:09.192Z,18.47
2022-11-04T01:03:30.974Z,18.53
2022-11-04T01:03:54.048Z,18.49
2022-11-04T01:04:16.583Z,18.52
2022-11-04T01:04:38.188Z,18.55
2022-11-04T01:04:59.754Z,18.60
2022-11-04T01:05:21.368Z,18.61
2022-11-04T01:05:43.911Z,18.63
2022-11-04T01:06:05.944Z,18.64
2022-11-04T01:06:28.025Z,18.66
2022-11-04T01:06:49.582Z,18.65
2022-11-04T01:07:11.194Z,18.65
2022-11-04T01:07:33.734Z,18.67
2022-11-04T01:07:56.821Z,18.67
2022-11-04T01:08:18.422Z,18.61
2022-11-04T01:08:40.232Z,18.62
2022-11-04T01:09:05.731Z,18.64
2022-11-04T01:09:28.373Z,18.64
2022-11-04T01:09:49.982Z,18.53
2022-11-04T01:10:11.667Z,18.46
2022-11-04T01:10:35.117Z,18.47
2022-11-04T01:10:57.670Z,18.49
2022-11-04T01:11:19.229Z,18.42
2022-11-04T01:11:42.232Z,18.51
2022-11-04T01:12:04.310Z,18.52
2022-11-04T01:12:26.978Z,18.45
2022-11-04T01:12:48.565Z,18.47
2022-11-04T01:13:10.762Z,18.49
2022-11-04T01:13:33.378Z,18.49
2022-11-04T01:13:55.667Z,18.52
2022-11-04T01:14:18.498Z,18.54
2022-11-04T01:14:40.058Z,18.37
2022-11-04T01:15:01.715Z,18.51
2022-11-04T01:15:23.386Z,18.52
2022-11-04T01:15:45.919Z,18.55
2022-11-04T01:16:10.953Z,18.58
2022-11-04T01:16:33.240Z,18.58
2022-11-04T01:16:54.842Z,18.61
2022-11-04T01:17:17.773Z,18.58
2022-11-04T01:17:39.370Z,18.60
2022-11-04T01:18:00.945Z,18.60
2022-11-04T01:18:22.471Z,18.61
2022-11-04T01:18:44.130Z,18.62
2022-11-04T01:19:07.097Z,18.65
2022-11-04T01:19:28.654Z,18.64
2022-11-04T01:19:50.237Z,18.66
2022-11-04T01:20:13.806Z,18.67
2022-11-04T01:20:36.421Z,18.69
2022-11-04T01:21:01.166Z,18.69
2022-11-04T01:21:22.711Z,18.71
2022-11-04T01:21:44.414Z,18.73
2022-11-04T01:22:16.972Z,18.73
2022-11-04T01:22:38.572Z,18.73
2022-11-04T01:23:00.512Z,18.78
2022-11-04T01:23:22.088Z,18.73
2022-11-04T01:23:44.803Z,18.62
2022-11-04T01:24:07.641Z,18.64
2022-11-04T01:24:29.422Z,18.64
2022-11-04T01:24:51.074Z,18.66
2022-11-04T01:25:12.686Z,18.68
2022-11-04T01:25:35.293Z,18.68
2022-11-04T01:25:57.043Z,18.68
2022-11-04T01:26:21.809Z,18.63
2022-11-04T01:26:44.951Z,18.66
2022-11-04T01:27:07.495Z,18.59
2022-11-04T01:27:29.084Z,18.42
2022-11-04T01:27:50.746Z,18.53
2022-11-04T01:28:12.478Z,18.55
2022-11-04T01:28:34.129Z,18.51
2022-11-04T01:28:58.005Z,18.48
2022-11-04T01:29:19.581Z,18.50
2022-11-04T01:29:41.106Z,18.54
2022-11-04T01:30:02.695Z,18.57
2022-11-04T01:30:25.665Z,18.59
2022-11-04T01:30:47.334Z,18.59
2022-11-04T01:31:10.124Z,18.44
2022-11-04T01:31:31.687Z,18.46
2022-11-04T01:31:54.248Z,18.49
2022-11-04T01:32:15.802Z,18.50
2022-11-04T01:32:37.326Z,18.52
2022-11-04T01:32:58.962Z,18.47
2022-11-04T01:33:20.603Z,18.51
2022-11-04T01:33:43.471Z,18.51
2022-11-04T01:34:05.046Z,18.52
2022-11-04T01:34:26.645Z,18.46
2022-11-04T01:34:49.156Z,18.44
2022-11-04T01:35:10.730Z,18.43
2022-11-04T01:35:32.519Z,18.40
2022-11-04T01:35:54.124Z,18.43
2022-11-04T01:36:15.817Z,18.41
2022-11-04T01:36:38.331Z,18.42
2022-11-04T01:36:59.871Z,18.46
2022-11-04T01:37:21.422Z,18.47
2022-11-04T01:37:43.002Z,18.39
2022-11-04T01:38:05.945Z,18.39
2022-11-04T01:38:28.726Z,18.25
2022-11-04T01:38:50.848Z,18.36
2022-11-04T01:39:12.942Z,18.29
2022-11-04T01:39:35.461Z,18.33
2022-11-04T01:39:57.068Z,18.37
2022-11-04T01:40:19.124Z,18.38
2022-11-04T01:40:41.328Z,18.26
2022-11-04T01:41:04.477Z,18.28
2022-11-04T01:41:30.626Z,18.21
2022-11-04T01:41:53.606Z,18.15
2022-11-04T01:42:16.608Z,18.15
2022-11-04T01:42:38.209Z,18.10
2022-11-04T01:42:59.791Z,18.12
2022-11-04T01:43:22.653Z,18.17
2022-11-04T01:43:49.393Z,18.15
2022-11-04T01:44:48.813Z,18.01
2022-11-04T01:45:15.580Z,18.06
2022-11-04T01:45:37.309Z,18.09
2022-11-04T01:46:00.627Z,18.11
2022-11-04T01:46:34.087Z,18.17
2022-11-04T01:46:56.650Z,18.19
2022-11-04T01:47:21.658Z,18.21
2022-11-04T01:47:47.505Z,18.06
2022-11-04T01:48:14.680Z,18.07
2022-11-04T01:48:37.249Z,18.15
2022-11-04T01:49:06.324Z,18.12
2022-11-04T01:49:33.138Z,18.11
2022-11-04T01:49:59.055Z,18.16
2022-11-04T01:50:23.837Z,18.18
2022-11-04T01:50:45.467Z,18.23
2022-11-04T01:51:07.630Z,18.25
2022-11-04T01:51:34.188Z,18.27
2022-11-04T01:52:01.059Z,18.31
2022-11-04T01:52:28.491Z,18.30
2022-11-04T01:52:54.218Z,18.33
2022-11-04T01:53:18.934Z,18.35
2022-11-04T01:53:43.849Z,18.33
2022-11-04T01:54:06.584Z,18.30
2022-11-04T01:54:29.931Z,18.29
2022-11-04T01:54:54.109Z,18.33
2022-11-04T01:55:20.447Z,18.36
2022-11-04T01:55:45.387Z,18.40
2022-11-04T01:56:12.831Z,18.41
2022-11-04T01:56:34.931Z,18.44
2022-11-04T01:57:00.950Z,18.46
2022-11-04T01:57:28.390Z,18.37
2022-11-04T01:57:53.828Z,18.30
2022-11-04T01:58:18.397Z,18.24
2022-11-04T01:58:43.326Z,18.27
2022-11-04T01:59:10.561Z,18.28
2022-11-04T01:59:37.842Z,18.28
2022-11-04T02:00:02.896Z,18.32
2022-11-04T02:00:33.304Z,18.25
2022-11-04T02:00:55.012Z,18.27
2022-11-04T02:01:17.765Z,18.31
2022-11-04T02:01:39.626Z,18.35
2022-11-04T02:02:01.901Z,18.34
2022-11-04T02:02:23.725Z,18.36
2022-11-04T02:03:00.025Z,18.38
2022-11-04T02:03:26.769Z,18.41
2022-11-04T02:03:53.053Z,18.37
2022-11-04T02:04:27.570Z,18.39
2022-11-04T02:04:50.095Z,18.40
2022-11-04T02:05:11.739Z,18.41
2022-11-04T02:05:33.506Z,18.40
2022-11-04T02:05:55.520Z,18.41
2022-11-04T02:06:20.813Z,18.42
2022-11-04T02:06:42.388Z,18.34
2022-11-04T02:07:07.089Z,18.34
2022-11-04T02:07:28.903Z,18.31
2022-11-04T02:07:55.255Z,18.33
2022-11-04T02:08:18.130Z,18.32
2022-11-04T02:08:40.995Z,18.33
2022-11-04T02:09:02.597Z,18.33
2022-11-04T02:09:27.711Z,18.30
2022-11-04T02:09:49.635Z,18.33
2022-11-04T02:10:12.487Z,18.36
2022-11-04T02:10:35.042Z,18.32
2022-11-04T02:10:59.846Z,18.34
2022-11-04T02:11:48.259Z,18.31
2022-11-04T02:12:29.543Z,18.39
2022-11-04T02:12:51.525Z,18.40
2022-11-04T02:13:13.102Z,18.33
2022-11-04T02:13:36.632Z,18.29
2022-11-04T02:13:58.618Z,18.29
2022-11-04T02:14:20.221Z,18.27
2022-11-04T02:14:43.907Z,18.28
2022-11-04T02:15:06.212Z,18.32
2022-11-04T02:15:37.401Z,18.28
2022-11-04T02:16:09.690Z,18.20
2022-11-04T02:16:39.902Z,18.26
2022-11-04T02:17:11.440Z,18.15
2022-11-04T02:17:59.695Z,18.15
2022-11-04T02:18:53.225Z,18.17
2022-11-04T02:19:37.376Z,18.20
2022-11-04T02:20:07.604Z,18.26
2022-11-04T02:20:44.155Z,18.28
2022-11-04T02:21:26.116Z,18.29
2022-11-04T02:22:20.379Z,18.20
2022-11-04T02:23:06.371Z,18.19
2022-11-04T02:23:58.971Z,18.27
2022-11-04T02:24:42.429Z,18.32
2022-11-04T02:25:15.493Z,18.38
2022-11-04T02:26:17.065Z,18.42
2022-11-04T02:27:22.509Z,18.43
2022-11-04T02:28:04.867Z,18.36
2022-11-04T02:28:46.136Z,18.32
2022-11-04T02:29:25.986Z,18.21
2022-11-04T02:30:08.806Z,18.23
2022-11-04T02:30:36.263Z,18.25
2022-11-04T02:31:05.053Z,18.26
2022-11-04T02:31:34.410Z,18.30
2022-11-04T02:32:06.339Z,18.33
2022-11-04T02:32:40.563Z,18.36
2022-11-04T02:33:19.704Z,18.41
2022-11-04T02:33:49.437Z,18.44
2022-11-04T02:34:19.551Z,18.41
2022-11-04T02:34:50.483Z,18.45
2022-11-04T02:35:21.683Z,18.32
2022-11-04T02:35:51.436Z,18.47
2022-11-04T02:36:22.583Z,18.42
2022-11-04T02:36:52.011Z,18.47
2022-11-04T02:37:22.423Z,18.48
2022-11-04T02:37:55.077Z,18.54
2022-11-04T02:38:26.976Z,18.55
2022-11-04T02:38:52.408Z,18.57
2022-11-04T02:39:22.986Z,18.52
2022-11-04T02:39:53.921Z,18.55
2022-11-04T02:40:24.728Z,18.57
2022-11-04T02:40:57.083Z,18.58
2022-11-04T02:41:31.139Z,18.55
2022-11-04T02:41:58.184Z,18.55
2022-11-04T02:42:27.159Z,18.57
2022-11-04T02:42:54.946Z,18.57
2022-11-04T02:43:26.410Z,18.58
2022-11-04T02:44:08.127Z,18.59
2022-11-04T02:44:34.731Z,18.63
2022-11-04T02:45:10.834Z,18.60
2022-11-04T02:45:38.450Z,18.62
2022-11-04T02:46:05.277Z,18.62
2022-11-04T02:46:34.618Z,18.60
2022-11-04T02:47:00.361Z,18.61
2022-11-04T02:47:26.475Z,18.59
2022-11-04T02:47:55.331Z,18.60
2022-11-04T02:48:25.543Z,18.61
2022-11-04T02:48:53.281Z,18.57
2022-11-04T02:49:24.531Z,18.56
2022-11-04T02:49:52.030Z,18.59
2022-11-04T02:50:21.996Z,18.60
2022-11-04T02:50:52.267Z,18.60
2022-11-04T02:51:19.797Z,18.54
2022-11-04T02:51:47.026Z,18.60
2022-11-04T02:52:11.278Z,18.62
2022-11-04T02:52:41.617Z,18.62
2022-11-04T02:53:08.034Z,18.56
2022-11-04T02:53:33.874Z,18.60
2022-11-04T02:54:04.766Z,18.47
2022-11-04T02:54:33.170Z,18.59
2022-11-04T02:55:01.304Z,18.58
2022-11-04T02:55:26.893Z,18.55
2022-11-04T02:55:53.945Z,18.59
2022-11-04T02:56:17.778Z,18.61
2022-11-04T02:56:43.408Z,18.61
2022-11-04T02:57:09.703Z,18.57
2022-11-04T02:57:36.670Z,18.55
2022-11-04T02:58:00.363Z,18.55
2022-11-04T02:58:25.482Z,18.57
2022-11-04T02:58:55.857Z,18.55
2022-11-04T02:59:24.149Z,18.52
2022-11-04T02:59:52.672Z,18.56
2022-11-04T03:00:15.467Z,18.51
2022-11-04T03:00:42.974Z,18.52
2022-11-04T03:01:08.009Z,18.52
2022-11-04T03:01:34.665Z,18.50
2022-11-04T03:01:58.844Z,18.49
2022-11-04T03:02:28.297Z,18.39
2022-11-04T03:02:55.478Z,18.48
2022-11-04T03:03:22.119Z,18.53
2022-11-04T03:03:49.418Z,18.54
2022-11-04T03:04:15.302Z,18.50
2022-11-04T03:04:40.982Z,18.46
2022-11-04T03:05:06.763Z,18.47
2022-11-04T03:05:33.924Z,18.42
2022-11-04T03:05:58.214Z,18.45
2022-11-04T03:06:24.738Z,18.40
2022-11-04T03:06:50.005Z,18.41
2022-11-04T03:07:15.969Z,18.44
2022-11-04T03:07:41.628Z,18.43
2022-11-04T03:08:06.691Z,18.44
2022-11-04T03:08:32.387Z,18.43
2022-11-04T03:08:56.653Z,18.47
2022-11-04T03:09:20.846Z,18.43
2022-11-04T03:09:47.613Z,18.41
2022-11-04T03:10:16.929Z,18.46
2022-11-04T03:10:44.118Z,18.47
2022-11-04T03:11:12.214Z,18.51
2022-11-04T03:11:35.890Z,18.51
2022-11-04T03:12:03.177Z,18.50
2022-11-04T03:12:30.178Z,18.48
2022-11-04T03:12:56.298Z,18.46
2022-11-04T03:13:22.544Z,18.46
2022-11-04T03:13:49.835Z,18.46
2022-11-04T03:14:16.804Z,18.48
2022-11-04T03:14:42.903Z,18.42
2022-11-04T03:15:13.314Z,18.35
2022-11-04T03:15:39.028Z,18.38
2022-11-04T03:16:09.031Z,18.38
2022-11-04T03:16:37.461Z,18.35
2022-11-04T03:17:04.829Z,18.37
2022-11-04T03:17:32.033Z,18.37
2022-11-04T03:18:00.548Z,18.37
2022-11-04T03:18:30.170Z,18.36
2022-11-04T03:19:01.810Z,18.38
2022-11-04T03:19:31.000Z,18.25
2022-11-04T03:19:56.317Z,18.27
2022-11-04T03:20:23.586Z,18.16
2022-11-04T03:20:49.250Z,18.15
2022-11-04T03:21:13.978Z,18.17
2022-11-04T03:21:40.143Z,18.18
2022-11-04T03:22:05.993Z,18.19
2022-11-04T03:22:31.464Z,18.12
2022-11-04T03:22:55.714Z,18.19
2022-11-04T03:23:17.858Z,18.21
2022-11-04T03:23:40.534Z,18.19
2022-11-04T03:24:04.499Z,18.22
2022-11-04T03:24:26.796Z,18.23
2022-11-04T03:24:49.759Z,18.23
2022-11-04T03:25:11.507Z,18.22
2022-11-04T03:25:38.815Z,18.19
2022-11-04T03:26:09.629Z,18.21
2022-11-04T03:26:37.166Z,18.19
2022-11-04T03:27:02.845Z,18.16
2022-11-04T03:27:31.681Z,18.12
2022-11-04T03:28:00.938Z,18.10
2022-11-04T03:28:37.990Z,18.10
2022-11-04T03:29:10.669Z,18.11
2022-11-04T03:29:35.358Z,18.13
2022-11-04T03:30:01.976Z,18.18
2022-11-04T03:30:25.323Z,18.19
2022-11-04T03:30:49.450Z,18.22
2022-11-04T03:31:17.855Z,18.20
2022-11-04T03:31:46.098Z,18.13
2022-11-04T03:32:15.608Z,18.14
2022-11-04T03:32:44.487Z,18.10
2022-11-04T03:33:13.491Z,18.10
2022-11-04T03:33:41.303Z,18.08
2022-11-04T03:34:02.958Z,18.04
2022-11-04T03:34:25.610Z,18.13
2022-11-04T03:34:47.656Z,18.16
2022-11-04T03:35:09.785Z,18.02
2022-11-04T03:35:31.896Z,18.18
2022-11-04T03:35:54.594Z,18.18
2022-11-04T03:36:16.357Z,18.16
2022-11-04T03:36:38.040Z,18.10
2022-11-04T03:36:59.840Z,18.08
2022-11-04T03:37:22.530Z,18.07
2022-11-04T03:37:44.831Z,18.08
2022-11-04T03:38:06.538Z,18.06
2022-11-04T03:38:28.141Z,18.07
2022-11-04T03:38:52.373Z,18.11
2022-11-04T03:39:13.915Z,18.08
2022-11-04T03:39:35.510Z,18.15
2022-11-04T03:39:57.125Z,18.11
2022-11-04T03:40:21.948Z,18.17
2022-11-04T03:40:43.722Z,18.16
2022-11-04T03:41:14.830Z,18.03
2022-11-04T03:41:43.760Z,18.09
2022-11-04T03:42:20.499Z,18.08
2022-11-04T03:42:49.587Z,18.08
2022-11-04T03:43:17.420Z,18.02
2022-11-04T03:43:41.690Z,18.09
2022-11-04T03:44:03.747Z,18.09
2022-11-04T03:44:26.857Z,18.07
2022-11-04T03:44:49.380Z,18.09
2022-11-04T03:45:11.491Z,18.07
2022-11-04T03:45:34.449Z,18.11
2022-11-04T03:45:57.298Z,18.14
2022-11-04T03:46:19.390Z,18.15
2022-11-04T03:46:41.262Z,18.13
2022-11-04T03:47:02.914Z,18.14
2022-11-04T03:47:27.364Z,18.15
2022-11-04T03:47:50.683Z,18.14
2022-11-04T03:48:13.160Z,18.14
2022-11-04T03:48:35.354Z,18.15
2022-11-04T03:48:59.161Z,18.18
2022-11-04T03:49:23.441Z,18.18
2022-11-04T03:49:46.071Z,18.17
2022-11-04T03:50:12.097Z,18.13
2022-11-04T03:50:40.325Z,18.15
2022-11-04T03:51:03.036Z,18.08
2022-11-04T03:51:24.583Z,18.14
2022-11-04T03:51:46.141Z,18.10
2022-11-04T03:52:07.718Z,18.15
2022-11-04T03:52:29.434Z,18.17
2022-11-04T03:52:52.371Z,18.15
2022-11-04T03:53:17.160Z,18.16
2022-11-04T03:53:38.995Z,18.17
2022-11-04T03:54:01.130Z,18.19
2022-11-04T03:54:23.811Z,18.18
2022-11-04T03:54:46.583Z,18.11
2022-11-04T03:55:09.639Z,18.07
2022-11-04T03:55:44.366Z,18.09
2022-11-04T03:56:28.488Z,18.13
2022-11-04T03:57:02.768Z,18.15
2022-11-04T03:57:37.561Z,18.14
2022-11-04T03:58:05.823Z,18.11
2022-11-04T03:58:37.802Z,18.17
2022-11-04T03:59:18.935Z,18.15
2022-11-04T04:00:09.111Z,18.00
2022-11-04T04:00:39.743Z,18.07
2022-11-04T04:01:14.149Z,18.13
2022-11-04T04:01:47.618Z,18.15
2022-11-04T04:02:15.876Z,18.13
2022-11-04T04:02:47.013Z,18.13
2022-11-04T04:03:13.475Z,18.15
2022-11-04T04:03:41.759Z,18.15
2022-11-04T04:04:11.334Z,18.15
2022-11-04T04:04:36.892Z,18.09
2022-11-04T04:05:01.707Z,18.08
2022-11-04T04:05:28.143Z,18.11
2022-11-04T04:05:53.878Z,18.13
2022-11-04T04:06:18.733Z,18.13
2022-11-04T04:06:43.366Z,18.12
2022-11-04T04:07:13.530Z,18.12
2022-11-04T04:07:39.815Z,18.11
2022-11-04T04:08:12.307Z,18.06
2022-11-04T04:08:39.461Z,18.12
2022-11-04T04:09:08.167Z,18.09
2022-11-04T04:09:38.009Z,18.12
2022-11-04T04:10:24.866Z,18.12
2022-11-04T04:10:54.499Z,18.15
2022-11-04T04:11:21.523Z,18.15
2022-11-04T04:11:49.304Z,18.13
2022-11-04T04:12:16.682Z,18.12
2022-11-04T04:12:41.360Z,18.09
2022-11-04T04:13:07.674Z,18.08
2022-11-04T04:13:39.941Z,18.05
2022-11-04T04:14:06.282Z,18.04
2022-11-04T04:14:40.157Z,18.00
2022-11-04T04:15:08.150Z,18.06
2022-11-04T04:15:34.961Z,18.07
2022-11-04T04:16:01.086Z,18.06
2022-11-04T04:16:29.747Z,18.10
2022-11-04T04:16:56.596Z,18.09
2022-11-04T04:17:21.265Z,18.08
2022-11-04T04:17:47.514Z,17.95
2022-11-04T04:18:13.598Z,18.09
2022-11-04T04:18:41.245Z,18.06
2022-11-04T04:19:05.715Z,18.05
2022-11-04T04:19:28.108Z,17.94
2022-11-04T04:19:54.684Z,17.84
2022-11-04T04:20:20.435Z,17.94
2022-11-04T04:20:47.132Z,17.93
2022-11-04T04:21:15.353Z,17.91
2022-11-04T04:21:42.421Z,17.94
2022-11-04T04:22:10.419Z,17.91
2022-11-04T04:22:37.170Z,17.85
2022-11-04T04:23:24.422Z,17.91
2022-11-04T04:24:08.455Z,17.91
2022-11-04T04:24:53.795Z,17.93
2022-11-04T04:25:35.743Z,17.97
2022-11-04T04:26:21.797Z,17.99
2022-11-04T04:27:08.090Z,18.00
2022-11-04T04:27:32.200Z,17.96
2022-11-04T04:27:56.153Z,18.00
2022-11-04T04:28:21.251Z,17.98
2022-11-04T04:28:43.562Z,17.99
2022-11-04T04:29:06.742Z,17.98
2022-11-04T04:29:29.720Z,17.95
2022-11-04T04:29:54.231Z,17.91
2022-11-04T04:30:17.189Z,17.94
2022-11-04T04:30:42.002Z,17.92
2022-11-04T04:31:05.591Z,17.95
2022-11-04T04:31:48.957Z,17.97
2022-11-04T04:32:12.586Z,17.96
2022-11-04T04:32:39.289Z,17.94
2022-11-04T04:33:07.385Z,17.97
2022-11-04T04:33:29.130Z,17.98
2022-11-04T04:33:51.661Z,17.97
2022-11-04T04:34:13.297Z,18.00
2022-11-04T04:34:34.903Z,18.01
2022-11-04T04:35:17.500Z,18.01
2022-11-04T04:35:43.487Z,17.98
2022-11-04T04:36:09.209Z,17.95
2022-11-04T04:36:33.042Z,17.98
2022-11-04T04:37:01.060Z,17.97
2022-11-04T04:37:26.574Z,17.99
2022-11-04T04:37:48.612Z,18.01
2022-11-04T04:38:38.494Z,17.93
2022-11-04T04:39:24.012Z,17.89
2022-11-04T04:40:07.400Z,17.89
2022-11-04T04:40:49.675Z,17.89
2022-11-04T04:41:35.903Z,17.86
2022-11-04T04:42:17.122Z,17.83
2022-11-04T04:42:58.003Z,17.85
2022-11-04T04:43:38.246Z,17.88
2022-11-04T04:44:18.655Z,17.77
2022-11-04T04:45:01.935Z,17.85
2022-11-04T04:45:31.711Z,17.86
2022-11-04T04:45:55.872Z,17.86
2022-11-04T04:46:20.227Z,17.86
2022-11-04T04:46:43.387Z,17.85
2022-11-04T04:47:06.683Z,17.86
2022-11-04T04:47:33.546Z,17.83
2022-11-04T04:47:56.169Z,17.84
2022-11-04T04:48:17.850Z,17.82
2022-11-04T04:48:39.494Z,17.81
2022-11-04T04:49:05.343Z,17.82
2022-11-04T04:49:34.866Z,17.76
2022-11-04T04:49:58.689Z,17.72
2022-11-04T04:50:21.675Z,17.80
2022-11-04T04:50:48.334Z,17.76
2022-11-04T04:51:10.876Z,17.78
2022-11-04T04:51:33.459Z,17.74
2022-11-04T04:51:55.008Z,17.78
2022-11-04T04:52:16.718Z,17.74
2022-11-04T04:52:42.338Z,17.69
2022-11-04T04:53:04.272Z,17.71
2022-11-04T04:53:25.871Z,17.73
2022-11-04T04:53:47.476Z,17.72
2022-11-04T04:54:10.188Z,17.73
2022-11-04T04:54:31.779Z,17.68
2022-11-04T04:54:53.390Z,17.73
2022-11-04T04:55:16.439Z,17.75
2022-11-04T04:55:41.786Z,17.73
2022-11-04T04:56:03.610Z,17.71
2022-11-04T04:56:25.170Z,17.72
2022-11-04T04:56:46.745Z,17.69
2022-11-04T04:57:08.319Z,17.69
2022-11-04T04:57:30.871Z,17.67
2022-11-04T04:57:52.435Z,17.64
2022-11-04T04:58:14.049Z,17.68
2022-11-04T04:58:35.615Z,17.65
2022-11-04T04:58:58.348Z,17.59
2022-11-04T04:59:19.941Z,17.59
2022-11-04T04:59:41.626Z,17.62
2022-11-04T05:00:04.888Z,17.64
2022-11-04T05:00:27.693Z,17.60
2022-11-04T05:00:49.396Z,17.61
2022-11-04T05:01:11.270Z,17.58
2022-11-04T05:01:34.393Z,17.62
2022-11-04T05:01:57.178Z,17.63
2022-11-04T05:02:18.945Z,17.63
2022-11-04T05:02:40.707Z,17.64
2022-11-04T05:03:03.403Z,17.64
2022-11-04T05:03:25.137Z,17.61
2022-11-04T05:03:46.735Z,17.59
2022-11-04T05:04:08.301Z,17.60
2022-11-04T05:04:31.035Z,17.60
2022-11-04T05:04:52.595Z,17.60
2022-11-04T05:05:41.806Z,17.61
2022-11-04T05:06:03.515Z,17.60
2022-11-04T05:06:25.113Z,17.62
2022-11-04T05:06:46.696Z,17.61
2022-11-04T05:07:09.868Z,17.60
2022-11-04T05:07:32.463Z,17.65
2022-11-04T05:07:53.986Z,17.60
2022-11-04T05:08:15.551Z,17.61
2022-11-04T05:08:37.151Z,17.62
2022-11-04T05:08:59.676Z,17.63
2022-11-04T05:09:21.374Z,17.60
2022-11-04T05:09:42.942Z,17.58
2022-11-04T05:10:05.205Z,17.56
2022-11-04T05:10:27.747Z,17.57
2022-11-04T05:10:49.313Z,17.55
2022-11-04T05:11:11.116Z,17.52
2022-11-04T05:11:32.935Z,17.54
2022-11-04T05:11:54.626Z,17.52
2022-11-04T05:12:16.223Z,17.54
2022-11-04T05:12:57.916Z,17.43
2022-11-04T05:13:30.468Z,17.56
2022-11-04T05:13:52.233Z,17.58
2022-11-04T05:14:13.818Z,17.56
2022-11-04T05:14:35.846Z,17.56
2022-11-04T05:14:57.548Z,17.56
2022-11-04T05:15:20.181Z,17.56
2022-11-04T05:15:41.807Z,17.55
2022-11-04T05:16:05.532Z,17.57
2022-11-04T05:16:28.102Z,17.52
2022-11-04T05:16:51.019Z,17.55
2022-11-04T05:17:12.930Z,17.55
2022-11-04T05:17:34.511Z,17.57
2022-11-04T05:17:57.718Z,17.60
2022-11-04T05:18:20.631Z,17.59
2022-11-04T05:18:42.202Z,17.53
2022-11-04T05:19:03.817Z,17.61
2022-11-04T05:19:25.721Z,17.59
2022-11-04T05:19:48.296Z,17.57
2022-11-04T05:20:11.025Z,17.56
2022-11-04T05:20:34.139Z,17.57
2022-11-04T05:20:56.995Z,17.55
2022-11-04T05:21:19.140Z,17.56
2022-11-04T05:21:40.710Z,17.54
2022-11-04T05:22:02.343Z,17.50
2022-11-04T05:22:24.902Z,17.52
2022-11-04T05:22:46.503Z,17.51
2022-11-04T05:23:08.576Z,17.56
2022-11-04T05:23:30.159Z,17.58
2022-11-04T05:23:52.675Z,17.59
2022-11-04T05:24:14.407Z,17.59
2022-11-04T05:24:36.000Z,17.60
2022-11-04T05:24:57.543Z,17.62
2022-11-04T05:25:20.179Z,17.61
2022-11-04T05:25:41.923Z,17.61
2022-11-04T05:26:03.901Z,17.61
2022-11-04T05:26:25.468Z,17.60
2022-11-04T05:26:48.088Z,17.61
2022-11-04T05:27:09.674Z,17.60
2022-11-04T05:27:31.246Z,17.61
2022-11-04T05:27:52.783Z,17.51
2022-11-04T05:28:15.319Z,17.62
2022-11-04T05:28:36.876Z,17.61
2022-11-04T05:28:58.792Z,17.62
2022-11-04T05:29:20.366Z,17.58
2022-11-04T05:29:42.942Z,17.59
2022-11-04T05:30:05.324Z,17.55
2022-11-04T05:30:26.898Z,17.54
2022-11-04T05:30:48.435Z,17.51
2022-11-04T05:31:11.063Z,17.53
2022-11-04T05:31:32.635Z,17.49
2022-11-04T05:31:55.609Z,17.48
2022-11-04T05:32:17.178Z,17.49
2022-11-04T05:32:39.718Z,17.49
2022-11-04T05:33:04.719Z,17.50
2022-11-04T05:33:26.960Z,17.44
2022-11-04T05:33:48.527Z,17.41
2022-11-04T05:34:11.598Z,17.42
2022-11-04T05:34:33.170Z,17.41
2022-11-04T05:34:54.754Z,17.35
2022-11-04T05:35:16.586Z,17.35